sensor_id;sensor_type;location;lat;lon;timestamp;P1;durP1;ratioP1;P2;durP2;ratioP2
35644;SDS011;21764;52.042;6.830;2023-11-19T00:02:57;65.55;;;34.25;;
35644;SDS011;21764;52.042;6.830;2023-11-19T00:07:58;62.85;;;32.38;;
35644;SDS011;21764;52.042;6.830;2023-11-19T00:12:59;66.65;;;32.85;;
35644;SDS011;21764;52.042;6.830;2023-11-19T00:18:00;61.30;;;33.33;;
35644;SDS011;21764;52.042;6.830;2023-11-19T00:23:04;61.47;;;33.60;;
35644;SDS011;21764;52.042;6.830;2023-11-19T00:28:05;61.42;;;33.70;;
35644;SDS011;21764;52.042;6.830;2023-11-19T00:33:06;66.53;;;33.70;;
35644;SDS011;21764;52.042;6.830;2023-11-19T00:38:07;68.78;;;35.65;;
35644;SDS011;21764;52.042;6.830;2023-11-19T00:43:08;74.68;;;34.88;;
35644;SDS011;21764;52.042;6.830;2023-11-19T00:48:09;71.70;;;37.92;;
35644;SDS011;21764;52.042;6.830;2023-11-19T00:53:10;79.80;;;38.70;;
35644;SDS011;21764;52.042;6.830;2023-11-19T00:58:11;82.45;;;40.22;;
35644;SDS011;21764;52.042;6.830;2023-11-19T01:03:12;82.68;;;43.20;;
35644;SDS011;21764;52.042;6.830;2023-11-19T01:08:15;81.60;;;40.15;;
35644;SDS011;21764;52.042;6.830;2023-11-19T01:13:16;87.50;;;41.20;;
35644;SDS011;21764;52.042;6.830;2023-11-19T01:18:17;90.22;;;41.75;;
35644;SDS011;21764;52.042;6.830;2023-11-19T01:23:18;88.68;;;40.63;;
35644;SDS011;21764;52.042;6.830;2023-11-19T01:28:19;92.63;;;42.85;;
35644;SDS011;21764;52.042;6.830;2023-11-19T01:33:20;81.68;;;40.00;;
35644;SDS011;21764;52.042;6.830;2023-11-19T01:38:21;98.03;;;41.85;;
35644;SDS011;21764;52.042;6.830;2023-11-19T01:48:54;94.38;;;41.90;;
35644;SDS011;21764;52.042;6.830;2023-11-19T01:53:55;97.65;;;41.40;;
35644;SDS011;21764;52.042;6.830;2023-11-19T01:58:58;87.03;;;40.30;;
35644;SDS011;21764;52.042;6.830;2023-11-19T02:03:59;96.82;;;41.92;;
35644;SDS011;21764;52.042;6.830;2023-11-19T02:09:00;95.65;;;40.97;;
35644;SDS011;21764;52.042;6.830;2023-11-19T02:14:01;79.75;;;36.53;;
35644;SDS011;21764;52.042;6.830;2023-11-19T02:19:06;93.00;;;37.72;;
35644;SDS011;21764;52.042;6.830;2023-11-19T02:24:09;92.70;;;38.15;;
35644;SDS011;21764;52.042;6.830;2023-11-19T02:29:12;86.35;;;35.83;;
35644;SDS011;21764;52.042;6.830;2023-11-19T02:34:13;92.18;;;35.63;;
35644;SDS011;21764;52.042;6.830;2023-11-19T02:39:14;90.75;;;35.35;;
35644;SDS011;21764;52.042;6.830;2023-11-19T02:44:21;94.07;;;36.75;;
35644;SDS011;21764;52.042;6.830;2023-11-19T02:49:22;89.43;;;33.83;;
35644;SDS011;21764;52.042;6.830;2023-11-19T02:54:24;87.57;;;35.83;;
35644;SDS011;21764;52.042;6.830;2023-11-19T02:59:27;88.35;;;31.63;;
35644;SDS011;21764;52.042;6.830;2023-11-19T03:04:38;77.32;;;29.05;;
35644;SDS011;21764;52.042;6.830;2023-11-19T03:09:39;82.45;;;30.02;;
35644;SDS011;21764;52.042;6.830;2023-11-19T03:14:41;64.88;;;28.20;;
35644;SDS011;21764;52.042;6.830;2023-11-19T03:19:42;83.82;;;28.65;;
35644;SDS011;21764;52.042;6.830;2023-11-19T03:24:43;83.05;;;27.90;;
35644;SDS011;21764;52.042;6.830;2023-11-19T03:29:44;79.22;;;28.75;;
35644;SDS011;21764;52.042;6.830;2023-11-19T03:34:45;81.68;;;28.08;;
35644;SDS011;21764;52.042;6.830;2023-11-19T03:39:46;80.43;;;28.23;;
35644;SDS011;21764;52.042;6.830;2023-11-19T03:44:47;77.18;;;24.92;;
35644;SDS011;21764;52.042;6.830;2023-11-19T03:49:50;72.57;;;25.48;;
35644;SDS011;21764;52.042;6.830;2023-11-19T03:54:51;95.35;;;23.27;;
35644;SDS011;21764;52.042;6.830;2023-11-19T03:59:52;84.57;;;20.65;;
35644;SDS011;21764;52.042;6.830;2023-11-19T04:04:53;96.43;;;22.20;;
35644;SDS011;21764;52.042;6.830;2023-11-19T04:09:55;90.43;;;18.55;;
35644;SDS011;21764;52.042;6.830;2023-11-19T04:14:56;90.85;;;15.93;;
35644;SDS011;21764;52.042;6.830;2023-11-19T04:19:57;75.43;;;14.63;;
35644;SDS011;21764;52.042;6.830;2023-11-19T04:24:58;70.13;;;12.13;;
35644;SDS011;21764;52.042;6.830;2023-11-19T04:29:59;90.53;;;12.30;;
35644;SDS011;21764;52.042;6.830;2023-11-19T04:35:03;81.00;;;11.05;;
35644;SDS011;21764;52.042;6.830;2023-11-19T04:40:04;77.47;;;11.18;;
35644;SDS011;21764;52.042;6.830;2023-11-19T04:45:06;82.30;;;10.55;;
35644;SDS011;21764;52.042;6.830;2023-11-19T04:50:07;81.22;;;10.13;;
35644;SDS011;21764;52.042;6.830;2023-11-19T04:55:10;80.20;;;9.45;;
35644;SDS011;21764;52.042;6.830;2023-11-19T05:00:14;64.70;;;9.43;;
35644;SDS011;21764;52.042;6.830;2023-11-19T05:05:15;69.57;;;8.27;;
35644;SDS011;21764;52.042;6.830;2023-11-19T05:10:17;55.78;;;9.25;;
35644;SDS011;21764;52.042;6.830;2023-11-19T05:15:18;62.33;;;8.68;;
35644;SDS011;21764;52.042;6.830;2023-11-19T05:20:19;72.45;;;11.18;;
35644;SDS011;21764;52.042;6.830;2023-11-19T05:25:21;63.53;;;9.23;;
35644;SDS011;21764;52.042;6.830;2023-11-19T05:30:22;70.10;;;8.70;;
35644;SDS011;21764;52.042;6.830;2023-11-19T05:35:23;61.53;;;8.85;;
35644;SDS011;21764;52.042;6.830;2023-11-19T05:40:24;59.50;;;9.32;;
35644;SDS011;21764;52.042;6.830;2023-11-19T05:45:25;57.15;;;8.50;;
35644;SDS011;21764;52.042;6.830;2023-11-19T05:50:26;53.30;;;8.57;;
35644;SDS011;21764;52.042;6.830;2023-11-19T05:55:27;76.30;;;9.45;;
35644;SDS011;21764;52.042;6.830;2023-11-19T06:00:28;61.47;;;10.20;;
35644;SDS011;21764;52.042;6.830;2023-11-19T06:05:30;77.15;;;9.70;;
35644;SDS011;21764;52.042;6.830;2023-11-19T06:10:31;59.55;;;9.63;;
35644;SDS011;21764;52.042;6.830;2023-11-19T06:15:33;69.43;;;8.80;;
35644;SDS011;21764;52.042;6.830;2023-11-19T06:20:34;63.28;;;8.95;;
35644;SDS011;21764;52.042;6.830;2023-11-19T06:25:35;64.45;;;8.93;;
35644;SDS011;21764;52.042;6.830;2023-11-19T06:30:36;67.30;;;9.25;;
35644;SDS011;21764;52.042;6.830;2023-11-19T06:35:37;68.10;;;9.90;;
35644;SDS011;21764;52.042;6.830;2023-11-19T06:40:38;75.47;;;9.60;;
35644;SDS011;21764;52.042;6.830;2023-11-19T06:45:41;76.32;;;10.77;;
35644;SDS011;21764;52.042;6.830;2023-11-19T06:50:42;81.55;;;9.98;;
35644;SDS011;21764;52.042;6.830;2023-11-19T06:55:43;79.90;;;9.20;;
35644;SDS011;21764;52.042;6.830;2023-11-19T07:00:44;75.13;;;9.45;;
35644;SDS011;21764;52.042;6.830;2023-11-19T07:05:47;62.20;;;9.40;;
35644;SDS011;21764;52.042;6.830;2023-11-19T07:10:48;66.07;;;9.23;;
35644;SDS011;21764;52.042;6.830;2023-11-19T07:15:49;69.47;;;9.07;;
35644;SDS011;21764;52.042;6.830;2023-11-19T07:20:50;68.75;;;9.32;;
35644;SDS011;21764;52.042;6.830;2023-11-19T07:25:51;77.32;;;9.43;;
35644;SDS011;21764;52.042;6.830;2023-11-19T07:30:53;78.30;;;9.77;;
35644;SDS011;21764;52.042;6.830;2023-11-19T07:35:56;69.22;;;8.77;;
35644;SDS011;21764;52.042;6.830;2023-11-19T07:40:57;76.85;;;11.65;;
35644;SDS011;21764;52.042;6.830;2023-11-19T07:45:58;77.20;;;9.65;;
35644;SDS011;21764;52.042;6.830;2023-11-19T07:50:59;65.13;;;10.57;;
35644;SDS011;21764;52.042;6.830;2023-11-19T07:56:00;69.88;;;10.35;;
35644;SDS011;21764;52.042;6.830;2023-11-19T08:01:01;63.30;;;9.00;;
35644;SDS011;21764;52.042;6.830;2023-11-19T08:06:03;86.07;;;10.93;;
35644;SDS011;21764;52.042;6.830;2023-11-19T08:11:05;69.93;;;9.63;;
35644;SDS011;21764;52.042;6.830;2023-11-19T08:16:06;60.05;;;9.93;;
35644;SDS011;21764;52.042;6.830;2023-11-19T08:21:07;66.32;;;9.55;;
35644;SDS011;21764;52.042;6.830;2023-11-19T08:26:08;68.57;;;12.15;;
35644;SDS011;21764;52.042;6.830;2023-11-19T08:31:09;66.53;;;10.50;;
35644;SDS011;21764;52.042;6.830;2023-11-19T08:36:17;70.95;;;9.65;;
35644;SDS011;21764;52.042;6.830;2023-11-19T08:41:18;65.53;;;10.02;;
35644;SDS011;21764;52.042;6.830;2023-11-19T08:46:19;64.38;;;9.73;;
35644;SDS011;21764;52.042;6.830;2023-11-19T08:51:20;69.25;;;8.85;;
35644;SDS011;21764;52.042;6.830;2023-11-19T08:56:21;61.45;;;8.82;;
35644;SDS011;21764;52.042;6.830;2023-11-19T09:01:22;56.95;;;8.75;;
35644;SDS011;21764;52.042;6.830;2023-11-19T09:06:24;71.10;;;9.15;;
35644;SDS011;21764;52.042;6.830;2023-11-19T09:11:25;69.55;;;9.80;;
35644;SDS011;21764;52.042;6.830;2023-11-19T09:16:26;61.90;;;8.57;;
35644;SDS011;21764;52.042;6.830;2023-11-19T09:21:28;83.38;;;10.35;;
35644;SDS011;21764;52.042;6.830;2023-11-19T09:26:29;74.72;;;10.25;;
35644;SDS011;21764;52.042;6.830;2023-11-19T09:31:30;74.93;;;10.05;;
35644;SDS011;21764;52.042;6.830;2023-11-19T09:36:32;66.70;;;10.98;;
35644;SDS011;21764;52.042;6.830;2023-11-19T09:41:33;66.97;;;9.98;;
35644;SDS011;21764;52.042;6.830;2023-11-19T09:46:34;70.95;;;9.30;;
35644;SDS011;21764;52.042;6.830;2023-11-19T09:51:36;65.57;;;9.90;;
35644;SDS011;21764;52.042;6.830;2023-11-19T09:56:37;67.80;;;9.77;;
35644;SDS011;21764;52.042;6.830;2023-11-19T10:01:39;61.67;;;8.98;;
35644;SDS011;21764;52.042;6.830;2023-11-19T10:06:41;68.53;;;9.43;;
35644;SDS011;21764;52.042;6.830;2023-11-19T10:11:42;65.78;;;9.63;;
35644;SDS011;21764;52.042;6.830;2023-11-19T10:16:43;60.08;;;9.52;;
35644;SDS011;21764;52.042;6.830;2023-11-19T10:21:46;61.15;;;9.82;;
35644;SDS011;21764;52.042;6.830;2023-11-19T10:26:47;57.00;;;9.43;;
35644;SDS011;21764;52.042;6.830;2023-11-19T10:31:58;60.92;;;9.15;;
35644;SDS011;21764;52.042;6.830;2023-11-19T10:36:59;63.65;;;10.98;;
35644;SDS011;21764;52.042;6.830;2023-11-19T10:42:14;61.28;;;9.85;;
35644;SDS011;21764;52.042;6.830;2023-11-19T10:47:18;54.92;;;8.43;;
35644;SDS011;21764;52.042;6.830;2023-11-19T10:52:20;79.13;;;15.83;;
35644;SDS011;21764;52.042;6.830;2023-11-19T10:57:21;64.50;;;9.63;;
35644;SDS011;21764;52.042;6.830;2023-11-19T11:02:25;63.67;;;9.88;;
35644;SDS011;21764;52.042;6.830;2023-11-19T11:07:27;64.97;;;9.75;;
35644;SDS011;21764;52.042;6.830;2023-11-19T11:12:30;62.83;;;8.98;;
35644;SDS011;21764;52.042;6.830;2023-11-19T11:17:35;71.07;;;13.18;;
35644;SDS011;21764;52.042;6.830;2023-11-19T11:22:41;57.35;;;8.30;;
35644;SDS011;21764;52.042;6.830;2023-11-19T11:27:52;63.60;;;9.70;;
35644;SDS011;21764;52.042;6.830;2023-11-19T11:43:01;61.40;;;8.10;;
35644;SDS011;21764;52.042;6.830;2023-11-19T11:48:15;51.90;;;8.13;;
35644;SDS011;21764;52.042;6.830;2023-11-19T11:53:17;55.58;;;9.05;;
35644;SDS011;21764;52.042;6.830;2023-11-19T11:58:19;55.42;;;8.63;;
35644;SDS011;21764;52.042;6.830;2023-11-19T12:03:21;55.80;;;8.13;;
35644;SDS011;21764;52.042;6.830;2023-11-19T12:08:26;56.03;;;7.60;;
35644;SDS011;21764;52.042;6.830;2023-11-19T12:30:26;58.67;;;9.40;;
35644;SDS011;21764;52.042;6.830;2023-11-19T12:35:29;47.53;;;8.13;;
35644;SDS011;21764;52.042;6.830;2023-11-19T12:40:30;48.45;;;8.25;;
35644;SDS011;21764;52.042;6.830;2023-11-19T12:45:37;47.50;;;6.43;;
35644;SDS011;21764;52.042;6.830;2023-11-19T12:50:53;44.20;;;7.78;;
35644;SDS011;21764;52.042;6.830;2023-11-19T13:01:07;59.20;;;8.77;;
35644;SDS011;21764;52.042;6.830;2023-11-19T13:06:10;58.25;;;9.25;;
35644;SDS011;21764;52.042;6.830;2023-11-19T13:11:12;79.25;;;19.80;;
35644;SDS011;21764;52.042;6.830;2023-11-19T13:16:13;59.92;;;8.23;;
35644;SDS011;21764;52.042;6.830;2023-11-19T13:21:14;65.18;;;15.60;;
35644;SDS011;21764;52.042;6.830;2023-11-19T13:26:15;56.03;;;9.10;;
35644;SDS011;21764;52.042;6.830;2023-11-19T13:31:16;61.20;;;9.07;;
35644;SDS011;21764;52.042;6.830;2023-11-19T13:36:17;48.60;;;7.82;;
35644;SDS011;21764;52.042;6.830;2023-11-19T13:41:20;56.22;;;7.55;;
35644;SDS011;21764;52.042;6.830;2023-11-19T13:46:21;47.50;;;8.93;;
35644;SDS011;21764;52.042;6.830;2023-11-19T13:51:22;42.40;;;7.03;;
35644;SDS011;21764;52.042;6.830;2023-11-19T13:56:23;37.38;;;6.65;;
35644;SDS011;21764;52.042;6.830;2023-11-19T14:01:25;38.95;;;6.85;;
35644;SDS011;21764;52.042;6.830;2023-11-19T14:06:26;47.50;;;5.75;;
35644;SDS011;21764;52.042;6.830;2023-11-19T14:11:28;46.72;;;7.38;;
35644;SDS011;21764;52.042;6.830;2023-11-19T14:16:29;36.47;;;6.22;;
35644;SDS011;21764;52.042;6.830;2023-11-19T14:21:31;42.75;;;7.07;;
35644;SDS011;21764;52.042;6.830;2023-11-19T14:26:32;34.83;;;6.57;;
35644;SDS011;21764;52.042;6.830;2023-11-19T14:31:33;40.20;;;7.45;;
35644;SDS011;21764;52.042;6.830;2023-11-19T14:36:35;69.03;;;8.25;;
35644;SDS011;21764;52.042;6.830;2023-11-19T14:41:36;52.70;;;8.10;;
35644;SDS011;21764;52.042;6.830;2023-11-19T14:46:37;42.35;;;7.35;;
35644;SDS011;21764;52.042;6.830;2023-11-19T14:51:38;39.85;;;5.70;;
35644;SDS011;21764;52.042;6.830;2023-11-19T14:56:39;36.15;;;6.22;;
35644;SDS011;21764;52.042;6.830;2023-11-19T15:01:40;32.75;;;6.03;;
35644;SDS011;21764;52.042;6.830;2023-11-19T15:06:42;35.85;;;6.28;;
35644;SDS011;21764;52.042;6.830;2023-11-19T15:11:46;37.88;;;6.50;;
35644;SDS011;21764;52.042;6.830;2023-11-19T15:16:47;47.45;;;7.00;;
35644;SDS011;21764;52.042;6.830;2023-11-19T15:21:51;50.27;;;7.00;;
35644;SDS011;21764;52.042;6.830;2023-11-19T15:26:54;33.55;;;5.78;;
35644;SDS011;21764;52.042;6.830;2023-11-19T15:31:57;42.75;;;7.45;;
35644;SDS011;21764;52.042;6.830;2023-11-19T15:36:58;41.65;;;6.72;;
35644;SDS011;21764;52.042;6.830;2023-11-19T15:42:00;42.80;;;7.43;;
35644;SDS011;21764;52.042;6.830;2023-11-19T15:47:01;39.08;;;6.35;;
35644;SDS011;21764;52.042;6.830;2023-11-19T15:52:03;44.70;;;7.13;;
35644;SDS011;21764;52.042;6.830;2023-11-19T15:57:05;35.50;;;6.38;;
35644;SDS011;21764;52.042;6.830;2023-11-19T16:02:06;39.70;;;7.00;;
35644;SDS011;21764;52.042;6.830;2023-11-19T16:07:07;44.60;;;6.70;;
35644;SDS011;21764;52.042;6.830;2023-11-19T16:12:08;33.45;;;5.40;;
35644;SDS011;21764;52.042;6.830;2023-11-19T16:17:10;26.67;;;5.78;;
35644;SDS011;21764;52.042;6.830;2023-11-19T16:22:11;39.15;;;7.07;;
35644;SDS011;21764;52.042;6.830;2023-11-19T16:27:14;36.13;;;5.82;;
35644;SDS011;21764;52.042;6.830;2023-11-19T16:32:15;32.65;;;6.28;;
35644;SDS011;21764;52.042;6.830;2023-11-19T16:37:16;29.55;;;5.18;;
35644;SDS011;21764;52.042;6.830;2023-11-19T16:42:17;29.58;;;5.97;;
35644;SDS011;21764;52.042;6.830;2023-11-19T16:47:20;24.40;;;4.75;;
35644;SDS011;21764;52.042;6.830;2023-11-19T16:52:22;23.70;;;4.10;;
35644;SDS011;21764;52.042;6.830;2023-11-19T16:57:23;26.38;;;5.50;;
35644;SDS011;21764;52.042;6.830;2023-11-19T17:02:24;28.80;;;5.70;;
35644;SDS011;21764;52.042;6.830;2023-11-19T17:07:25;30.73;;;5.72;;
35644;SDS011;21764;52.042;6.830;2023-11-19T17:12:26;35.25;;;7.40;;
35644;SDS011;21764;52.042;6.830;2023-11-19T17:17:27;39.42;;;6.95;;
35644;SDS011;21764;52.042;6.830;2023-11-19T17:22:34;40.58;;;7.13;;
35644;SDS011;21764;52.042;6.830;2023-11-19T17:27:35;39.10;;;7.35;;
35644;SDS011;21764;52.042;6.830;2023-11-19T17:32:38;39.47;;;7.15;;
35644;SDS011;21764;52.042;6.830;2023-11-19T17:37:39;37.15;;;7.07;;
35644;SDS011;21764;52.042;6.830;2023-11-19T17:42:41;38.55;;;6.95;;
35644;SDS011;21764;52.042;6.830;2023-11-19T17:47:42;40.85;;;7.13;;
35644;SDS011;21764;52.042;6.830;2023-11-19T17:52:43;40.50;;;5.78;;
35644;SDS011;21764;52.042;6.830;2023-11-19T17:57:45;38.90;;;7.25;;
35644;SDS011;21764;52.042;6.830;2023-11-19T18:02:46;34.72;;;6.57;;
35644;SDS011;21764;52.042;6.830;2023-11-19T18:07:48;27.23;;;6.15;;
35644;SDS011;21764;52.042;6.830;2023-11-19T18:12:49;33.72;;;8.05;;
35644;SDS011;21764;52.042;6.830;2023-11-19T18:17:50;30.23;;;6.72;;
35644;SDS011;21764;52.042;6.830;2023-11-19T18:22:52;32.65;;;6.30;;
35644;SDS011;21764;52.042;6.830;2023-11-19T18:27:54;30.92;;;6.68;;
35644;SDS011;21764;52.042;6.830;2023-11-19T18:32:55;29.58;;;6.82;;
35644;SDS011;21764;52.042;6.830;2023-11-19T18:37:56;34.05;;;6.40;;
35644;SDS011;21764;52.042;6.830;2023-11-19T18:42:57;24.48;;;5.88;;
35644;SDS011;21764;52.042;6.830;2023-11-19T18:47:58;29.33;;;5.72;;
35644;SDS011;21764;52.042;6.830;2023-11-19T18:52:59;29.67;;;5.40;;
35644;SDS011;21764;52.042;6.830;2023-11-19T18:58:00;29.63;;;8.38;;
35644;SDS011;21764;52.042;6.830;2023-11-19T19:03:03;26.92;;;6.40;;
35644;SDS011;21764;52.042;6.830;2023-11-19T19:08:04;27.52;;;5.75;;
35644;SDS011;21764;52.042;6.830;2023-11-19T19:13:05;29.70;;;8.15;;
35644;SDS011;21764;52.042;6.830;2023-11-19T19:18:08;22.00;;;6.82;;
35644;SDS011;21764;52.042;6.830;2023-11-19T19:23:12;28.50;;;7.28;;
35644;SDS011;21764;52.042;6.830;2023-11-19T19:28:13;30.92;;;7.43;;
35644;SDS011;21764;52.042;6.830;2023-11-19T19:33:14;18.55;;;6.78;;
35644;SDS011;21764;52.042;6.830;2023-11-19T19:38:15;20.92;;;6.00;;
35644;SDS011;21764;52.042;6.830;2023-11-19T19:43:16;26.33;;;6.53;;
35644;SDS011;21764;52.042;6.830;2023-11-19T19:48:17;23.80;;;6.63;;
35644;SDS011;21764;52.042;6.830;2023-11-19T19:53:18;22.63;;;5.97;;
35644;SDS011;21764;52.042;6.830;2023-11-19T19:58:19;20.20;;;5.88;;
35644;SDS011;21764;52.042;6.830;2023-11-19T20:03:21;21.23;;;5.88;;
35644;SDS011;21764;52.042;6.830;2023-11-19T20:08:22;14.88;;;3.92;;
35644;SDS011;21764;52.042;6.830;2023-11-19T20:13:23;23.45;;;5.07;;
35644;SDS011;21764;52.042;6.830;2023-11-19T20:18:24;18.13;;;5.80;;
35644;SDS011;21764;52.042;6.830;2023-11-19T20:23:27;11.93;;;4.55;;
35644;SDS011;21764;52.042;6.830;2023-11-19T20:28:28;18.80;;;5.25;;
35644;SDS011;21764;52.042;6.830;2023-11-19T20:33:29;16.70;;;5.72;;
35644;SDS011;21764;52.042;6.830;2023-11-19T20:38:30;13.95;;;4.82;;
35644;SDS011;21764;52.042;6.830;2023-11-19T20:43:31;18.55;;;6.38;;
35644;SDS011;21764;52.042;6.830;2023-11-19T20:48:32;13.57;;;5.10;;
35644;SDS011;21764;52.042;6.830;2023-11-19T20:53:34;26.02;;;7.05;;
35644;SDS011;21764;52.042;6.830;2023-11-19T20:58:35;13.15;;;5.90;;
35644;SDS011;21764;52.042;6.830;2023-11-19T21:03:36;18.00;;;6.68;;
35644;SDS011;21764;52.042;6.830;2023-11-19T21:08:37;15.25;;;5.70;;
35644;SDS011;21764;52.042;6.830;2023-11-19T21:13:39;16.88;;;6.30;;
35644;SDS011;21764;52.042;6.830;2023-11-19T21:18:41;20.77;;;7.18;;
35644;SDS011;21764;52.042;6.830;2023-11-19T21:23:42;13.90;;;7.15;;
35644;SDS011;21764;52.042;6.830;2023-11-19T21:28:44;29.17;;;9.07;;
35644;SDS011;21764;52.042;6.830;2023-11-19T21:33:45;24.58;;;9.20;;
35644;SDS011;21764;52.042;6.830;2023-11-19T21:38:46;23.77;;;9.98;;
35644;SDS011;21764;52.042;6.830;2023-11-19T21:43:47;22.55;;;10.27;;
35644;SDS011;21764;52.042;6.830;2023-11-19T21:48:50;37.38;;;12.80;;
35644;SDS011;21764;52.042;6.830;2023-11-19T21:53:51;28.13;;;11.13;;
35644;SDS011;21764;52.042;6.830;2023-11-19T21:58:52;25.58;;;10.43;;
35644;SDS011;21764;52.042;6.830;2023-11-19T22:03:53;34.45;;;12.55;;
35644;SDS011;21764;52.042;6.830;2023-11-19T22:08:54;27.38;;;12.48;;
35644;SDS011;21764;52.042;6.830;2023-11-19T22:13:55;33.60;;;11.85;;
35644;SDS011;21764;52.042;6.830;2023-11-19T22:18:56;31.08;;;12.40;;
35644;SDS011;21764;52.042;6.830;2023-11-19T22:23:57;32.15;;;11.75;;
35644;SDS011;21764;52.042;6.830;2023-11-19T22:28:58;33.75;;;10.77;;
35644;SDS011;21764;52.042;6.830;2023-11-19T22:34:02;28.50;;;10.35;;
35644;SDS011;21764;52.042;6.830;2023-11-19T22:39:03;33.42;;;11.52;;
35644;SDS011;21764;52.042;6.830;2023-11-19T22:44:04;28.95;;;11.75;;
35644;SDS011;21764;52.042;6.830;2023-11-19T22:49:06;27.60;;;10.98;;
35644;SDS011;21764;52.042;6.830;2023-11-19T22:54:07;27.40;;;11.82;;
35644;SDS011;21764;52.042;6.830;2023-11-19T22:59:08;39.88;;;12.45;;
35644;SDS011;21764;52.042;6.830;2023-11-19T23:04:10;35.15;;;12.95;;
35644;SDS011;21764;52.042;6.830;2023-11-19T23:09:11;33.65;;;12.63;;
35644;SDS011;21764;52.042;6.830;2023-11-19T23:14:27;33.33;;;11.60;;
35644;SDS011;21764;52.042;6.830;2023-11-19T23:19:32;34.78;;;10.27;;
35644;SDS011;21764;52.042;6.830;2023-11-19T23:24:34;27.02;;;9.75;;
35644;SDS011;21764;52.042;6.830;2023-11-19T23:29:36;25.88;;;9.55;;
35644;SDS011;21764;52.042;6.830;2023-11-19T23:34:37;27.45;;;8.80;;
35644;SDS011;21764;52.042;6.830;2023-11-19T23:39:38;25.13;;;9.48;;
35644;SDS011;21764;52.042;6.830;2023-11-19T23:44:42;28.33;;;9.23;;
35644;SDS011;21764;52.042;6.830;2023-11-19T23:49:43;32.63;;;10.93;;
35644;SDS011;21764;52.042;6.830;2023-11-19T23:54:44;29.48;;;8.95;;
35644;SDS011;21764;52.042;6.830;2023-11-19T23:59:45;22.00;;;8.70;;
